Time;durP1;ratioP1;P1;durP2;ratioP2;P2;SDS_P1;SDS_P2;PMS_P1;PMS_P2;Temp;Humidity;BMP_temperature;BMP_pressure;BME280_temperature;BME280_humidity;BME280_pressure;Samples;Min_cycle;Max_cycle;Signal;HPM_P1;HPM_P2
2022/08/30 00:01:01;;;;;;;6.60;2.60;;;14.60;99.90;;;;;;5054883;28;20123;-69
2022/08/30 00:03:29;;;;;;;7.00;2.58;;;14.60;99.90;;;;;;5062586;28;20090;-69
2022/08/30 00:05:55;;;;;;;5.40;2.55;;;14.50;99.90;;;;;;5062275;28;20037;-70
2022/08/30 00:08:21;;;;;;;7.13;2.85;;;14.50;99.90;;;;;;5062490;28;20132;-70
2022/08/30 00:10:49;;;;;;;5.07;2.78;;;14.50;99.90;;;;;;5065627;28;20048;-69
2022/08/30 00:13:16;;;;;;;4.78;2.70;;;14.50;99.90;;;;;;5049691;28;20102;-70
2022/08/30 00:15:42;;;;;;;5.35;2.90;;;14.40;99.90;;;;;;5067759;28;20451;-70
2022/08/30 00:18:08;;;;;;;5.70;2.50;;;14.40;99.90;;;;;;5050209;28;20060;-70
2022/08/30 00:20:36;;;;;;;5.13;2.30;;;14.40;99.90;;;;;;5051211;28;20086;-70
2022/08/30 00:23:03;;;;;;;5.82;2.85;;;14.40;99.90;;;;;;5065736;28;20028;-70
2022/08/30 00:25:29;;;;;;;5.20;2.33;;;14.30;99.90;;;;;;5068086;28;20147;-70
2022/08/30 00:27:55;;;;;;;6.18;2.53;;;14.30;99.90;;;;;;5062941;28;20132;-70
2022/08/30 00:30:21;;;;;;;6.13;2.67;;;14.20;99.90;;;;;;5047172;28;20066;-70
2022/08/30 00:32:47;;;;;;;4.65;2.60;;;14.20;99.90;;;;;;5065250;28;20044;-70
2022/08/30 00:35:17;;;;;;;6.32;3.15;;;14.10;99.90;;;;;;5063628;28;20055;-70
2022/08/30 00:37:43;;;;;;;5.10;2.47;;;14.20;99.90;;;;;;5053096;28;20048;-70
2022/08/30 00:40:11;;;;;;;4.97;2.60;;;14.10;99.90;;;;;;5063489;28;20052;-70
2022/08/30 00:42:38;;;;;;;5.20;2.60;;;14.10;99.90;;;;;;5062426;28;20072;-69
2022/08/30 00:45:23;;;;;;;6.60;2.90;;;14.10;99.90;;;;;;5065504;28;20475;-70
2022/08/30 00:47:49;;;;;;;6.53;2.80;;;14.00;99.90;;;;;;5064767;28;20576;-69
2022/08/30 00:50:18;;;;;;;4.97;2.50;;;14.00;99.90;;;;;;5064731;28;20497;-70
2022/08/30 00:52:47;;;;;;;5.03;2.70;;;14.00;99.90;;;;;;5048325;28;20055;-69
2022/08/30 00:55:15;;;;;;;7.38;3.08;;;14.00;99.90;;;;;;5063533;28;20713;-69
2022/08/30 00:57:43;;;;;;;5.60;2.90;;;13.90;99.90;;;;;;5063587;28;20374;-69
2022/08/30 01:00:10;;;;;;;6.32;3.20;;;13.90;99.90;;;;;;5064231;28;20044;-69
2022/08/30 01:02:36;;;;;;;6.85;3.13;;;13.90;99.90;;;;;;5063283;28;20620;-69
2022/08/30 01:05:05;;;;;;;5.90;2.92;;;13.90;99.90;;;;;;5064084;28;20035;-69
2022/08/30 01:07:33;;;;;;;4.97;2.55;;;13.90;99.90;;;;;;5063690;28;20556;-70
2022/08/30 01:10:00;;;;;;;5.20;2.78;;;13.90;99.90;;;;;;5058208;28;20045;-70
2022/08/30 01:12:28;;;;;;;6.20;2.97;;;13.90;99.90;;;;;;5063470;28;20417;-70
2022/08/30 01:14:56;;;;;;;4.97;2.33;;;13.80;99.90;;;;;;5064259;28;20434;-69
2022/08/30 01:17:22;;;;;;;5.68;2.60;;;13.90;99.90;;;;;;5063419;28;20052;-69
2022/08/30 01:19:51;;;;;;;5.72;2.80;;;13.90;99.90;;;;;;5064791;28;20544;-69
2022/08/30 01:22:29;;;;;;;7.22;3.03;;;13.90;99.90;;;;;;5062065;28;20489;-69
2022/08/30 01:24:57;;;;;;;5.70;2.75;;;13.90;99.90;;;;;;5062438;28;20448;-70
2022/08/30 01:27:24;;;;;;;5.93;3.10;;;13.90;99.90;;;;;;5066947;28;20460;-70
2022/08/30 01:29:51;;;;;;;6.15;3.00;;;14.00;99.90;;;;;;5047770;28;20409;-69
2022/08/30 01:32:20;;;;;;;6.03;3.30;;;13.90;99.90;;;;;;5070070;28;20044;-70
2022/08/30 01:34:47;;;;;;;6.18;3.17;;;13.90;99.90;;;;;;5063048;28;20075;-69
2022/08/30 01:37:16;;;;;;;7.35;3.10;;;13.90;99.90;;;;;;5048810;28;20071;-70
2022/08/30 01:39:45;;;;;;;6.10;2.88;;;13.90;99.90;;;;;;5062757;28;20036;-69
2022/08/30 01:42:12;;;;;;;5.65;2.80;;;13.90;99.90;;;;;;5062797;28;20471;-69
2022/08/30 01:44:38;;;;;;;6.90;2.90;;;13.90;99.90;;;;;;5061658;28;20048;-69
2022/08/30 01:47:07;;;;;;;6.68;2.90;;;13.90;99.90;;;;;;5065168;28;20497;-69
2022/08/30 01:49:32;;;;;;;5.88;3.17;;;13.90;99.90;;;;;;5062803;28;20040;-69
2022/08/30 01:52:00;;;;;;;6.18;3.03;;;13.90;99.90;;;;;;5066454;28;20508;-69
2022/08/30 01:54:26;;;;;;;6.13;2.67;;;13.90;99.90;;;;;;5065252;28;20459;-69
2022/08/30 01:56:51;;;;;;;6.10;3.05;;;13.90;99.90;;;;;;5062638;28;20034;-69
2022/08/30 01:59:17;;;;;;;5.63;2.97;;;13.90;99.90;;;;;;5058119;28;20050;-70
2022/08/30 02:01:43;;;;;;;16.95;3.30;;;13.90;99.90;;;;;;5062494;28;20043;-70
2022/08/30 02:04:11;;;;;;;7.50;2.90;;;13.90;99.90;;;;;;5065647;28;20247;-69
2022/08/30 02:06:38;;;;;;;5.82;2.90;;;13.90;99.90;;;;;;5064114;28;20044;-70
2022/08/30 02:09:04;;;;;;;6.68;3.13;;;14.00;99.90;;;;;;5063652;28;20083;-69
2022/08/30 02:11:30;;;;;;;4.88;2.70;;;13.90;99.90;;;;;;5064919;28;20533;-70
2022/08/30 02:13:56;;;;;;;5.32;2.40;;;13.90;99.90;;;;;;5064269;28;20425;-70
2022/08/30 02:16:24;;;;;;;4.75;2.38;;;13.90;99.90;;;;;;5064710;28;20043;-69
2022/08/30 02:18:51;;;;;;;4.50;2.55;;;13.90;99.90;;;;;;5064289;28;20603;-70
2022/08/30 02:21:17;;;;;;;5.35;2.47;;;13.90;99.90;;;;;;5062253;28;20554;-69
2022/08/30 02:23:43;;;;;;;4.18;2.13;;;13.90;99.90;;;;;;5064101;28;20071;-69
2022/08/30 02:26:10;;;;;;;4.32;2.10;;;13.90;99.90;;;;;;5062623;28;20052;-70
2022/08/30 02:28:35;;;;;;;4.80;1.98;;;13.90;99.90;;;;;;5045777;28;20091;-69
2022/08/30 02:31:02;;;;;;;5.32;2.35;;;13.90;99.90;;;;;;5060256;28;20074;-69
2022/08/30 02:33:27;;;;;;;7.07;2.50;;;13.90;99.90;;;;;;5052729;28;20183;-69
2022/08/30 02:35:54;;;;;;;6.38;2.53;;;13.90;99.90;;;;;;5062389;28;20123;-70
2022/08/30 02:38:22;;;;;;;4.82;2.40;;;13.90;99.90;;;;;;5047274;28;20044;-69
2022/08/30 02:40:48;;;;;;;5.18;2.55;;;13.80;99.90;;;;;;5063416;28;21959;-70
2022/08/30 02:43:14;;;;;;;5.32;2.50;;;13.80;99.90;;;;;;5045066;28;20531;-69
2022/08/30 02:45:40;;;;;;;4.85;2.45;;;13.80;99.90;;;;;;5051234;28;20080;-69
2022/08/30 02:48:06;;;;;;;4.68;2.42;;;13.80;99.90;;;;;;5065588;28;20084;-68
2022/08/30 02:50:32;;;;;;;4.32;2.38;;;13.80;99.90;;;;;;5064065;28;20547;-70
2022/08/30 02:52:57;;;;;;;4.88;2.47;;;13.80;99.90;;;;;;5063412;28;20033;-69
2022/08/30 02:55:23;;;;;;;5.78;2.97;;;13.80;99.90;;;;;;5065657;28;20047;-69
2022/08/30 02:57:49;;;;;;;5.75;2.78;;;13.80;99.90;;;;;;5058522;28;20094;-69
2022/08/30 03:00:18;;;;;;;6.72;2.72;;;13.80;99.90;;;;;;5064163;28;20060;-69
2022/08/30 03:02:46;;;;;;;5.40;2.72;;;13.80;99.90;;;;;;5046067;28;20040;-69
2022/08/30 03:05:13;;;;;;;6.47;2.50;;;13.80;99.90;;;;;;5064991;28;20400;-69
2022/08/30 03:07:40;;;;;;;5.57;2.63;;;13.70;99.90;;;;;;5063633;28;20040;-69
2022/08/30 03:10:07;;;;;;;5.38;2.50;;;13.70;99.90;;;;;;5045832;28;20075;-69
2022/08/30 03:12:32;;;;;;;6.53;2.85;;;13.70;99.90;;;;;;5047481;28;20039;-69
2022/08/30 03:14:58;;;;;;;5.47;2.33;;;13.70;99.90;;;;;;5069556;28;20036;-69
2022/08/30 03:17:24;;;;;;;6.05;2.65;;;13.70;99.90;;;;;;5062786;28;20040;-69
2022/08/30 03:19:50;;;;;;;5.13;2.60;;;13.60;99.90;;;;;;5047172;28;20040;-69
2022/08/30 03:22:18;;;;;;;5.25;2.40;;;13.60;99.90;;;;;;5062111;28;20382;-69
2022/08/30 03:24:44;;;;;;;5.82;2.70;;;13.60;99.90;;;;;;5061899;28;20044;-69
2022/08/30 03:27:11;;;;;;;5.32;2.22;;;13.60;99.90;;;;;;5064713;28;20036;-69
2022/08/30 03:29:38;;;;;;;4.90;2.60;;;13.50;99.90;;;;;;5063839;28;20056;-69
2022/08/30 03:32:04;;;;;;;4.93;2.33;;;13.50;99.90;;;;;;5043113;28;20048;-69
2022/08/30 03:34:31;;;;;;;5.72;2.22;;;13.50;99.90;;;;;;5062910;28;20059;-69
2022/08/30 03:36:57;;;;;;;6.18;2.83;;;13.50;99.90;;;;;;5063291;28;20044;-69
2022/08/30 03:39:23;;;;;;;6.35;2.60;;;13.40;99.90;;;;;;5064259;28;20044;-69
2022/08/30 03:41:50;;;;;;;4.70;2.40;;;13.40;99.90;;;;;;5062880;28;20037;-70
2022/08/30 03:44:16;;;;;;;4.18;2.00;;;13.40;99.90;;;;;;5065571;28;20040;-69
2022/08/30 03:46:42;;;;;;;4.43;2.72;;;13.30;99.90;;;;;;5067573;28;20040;-69
2022/08/30 03:49:07;;;;;;;3.85;2.15;;;13.30;99.90;;;;;;5069039;28;20040;-70
2022/08/30 03:51:33;;;;;;;5.63;2.47;;;13.20;99.90;;;;;;5066489;28;20097;-69
2022/08/30 03:54:00;;;;;;;6.10;2.67;;;13.30;99.90;;;;;;5067768;28;20036;-69
2022/08/30 03:56:26;;;;;;;4.55;2.20;;;13.30;99.90;;;;;;5050899;28;20056;-69
2022/08/30 03:58:52;;;;;;;5.20;2.58;;;13.40;99.90;;;;;;5071941;28;20408;-69
2022/08/30 04:01:18;;;;;;;4.32;2.45;;;13.20;99.90;;;;;;5063763;28;20627;-69
2022/08/30 04:03:44;;;;;;;4.63;2.47;;;13.10;99.90;;;;;;5069400;28;20039;-69
2022/08/30 04:06:10;;;;;;;5.13;2.15;;;13.00;99.90;;;;;;5069668;28;20036;-69
2022/08/30 04:08:37;;;;;;;3.55;2.03;;;13.00;99.90;;;;;;5067755;28;21357;-69
2022/08/30 04:11:03;;;;;;;4.50;2.28;;;13.00;99.90;;;;;;5067459;28;20119;-69
2022/08/30 04:13:29;;;;;;;4.55;2.20;;;13.00;99.90;;;;;;5067932;28;20207;-69
2022/08/30 04:15:55;;;;;;;5.07;2.28;;;12.90;99.90;;;;;;5069007;28;20048;-69
2022/08/30 04:18:21;;;;;;;5.22;2.40;;;12.90;99.90;;;;;;5066093;28;20040;-68
2022/08/30 04:20:47;;;;;;;6.07;2.70;;;12.90;99.90;;;;;;5065586;28;20036;-69
2022/08/30 04:23:13;;;;;;;4.40;2.33;;;12.90;99.90;;;;;;5068200;28;20477;-69
2022/08/30 04:25:40;;;;;;;6.28;2.45;;;12.80;99.90;;;;;;5066783;28;20046;-69
2022/08/30 04:28:06;;;;;;;5.20;2.50;;;12.80;99.90;;;;;;5067235;28;20036;-68
2022/08/30 04:30:33;;;;;;;4.43;2.30;;;12.80;99.90;;;;;;5049093;28;20052;-69
2022/08/30 04:32:59;;;;;;;4.20;1.98;;;12.80;99.90;;;;;;5071637;28;20409;-69
2022/08/30 04:35:25;;;;;;;5.63;2.92;;;12.70;99.90;;;;;;5066138;28;20052;-68
2022/08/30 04:37:51;;;;;;;4.78;2.33;;;12.70;99.90;;;;;;5067370;28;20048;-68
2022/08/30 04:40:17;;;;;;;7.95;2.40;;;12.80;99.90;;;;;;5066136;28;20086;-68
2022/08/30 04:42:43;;;;;;;5.03;2.45;;;12.70;99.90;;;;;;5065448;28;20045;-69
2022/08/30 04:45:13;;;;;;;7.15;2.42;;;12.70;99.90;;;;;;5073218;28;20052;-68
2022/08/30 04:47:39;;;;;;;5.27;2.20;;;12.60;99.90;;;;;;5066686;28;20099;-69
2022/08/30 04:50:07;;;;;;;5.63;2.25;;;12.60;99.90;;;;;;5066271;28;20385;-68
2022/08/30 04:52:33;;;;;;;5.72;2.42;;;12.60;99.90;;;;;;5065869;28;20047;-68
2022/08/30 04:54:59;;;;;;;5.78;2.47;;;12.60;99.90;;;;;;5064850;28;20048;-69
2022/08/30 04:57:26;;;;;;;4.88;2.47;;;12.50;99.90;;;;;;5065603;28;20412;-69
2022/08/30 04:59:51;;;;;;;6.13;2.58;;;12.50;99.90;;;;;;5048648;28;20495;-69
2022/08/30 05:02:17;;;;;;;4.97;2.58;;;12.60;99.90;;;;;;5064992;28;20033;-69
2022/08/30 05:05:38;;;;;;;5.32;2.63;;;12.50;99.90;;;;;;5061915;28;20050;-69
2022/08/30 05:07:30;;;;;;;7.50;2.45;;;12.40;99.90;;;;;;5064399;28;20091;-69
2022/08/30 05:09:56;;;;;;;5.18;2.35;;;12.40;99.90;;;;;;5063392;28;20147;-70
2022/08/30 05:12:22;;;;;;;5.57;2.50;;;12.40;99.90;;;;;;5065727;28;20131;-69
2022/08/30 05:14:48;;;;;;;4.93;2.28;;;12.40;99.90;;;;;;5065715;28;20056;-69
2022/08/30 05:17:14;;;;;;;5.22;2.33;;;12.30;99.90;;;;;;5059436;28;20098;-69
2022/08/30 05:19:39;;;;;;;6.82;2.40;;;12.30;99.90;;;;;;5066967;28;20498;-69
2022/08/30 05:22:05;;;;;;;6.60;2.53;;;12.40;99.90;;;;;;5057858;28;20091;-69
2022/08/30 05:24:31;;;;;;;8.45;3.00;;;12.40;99.90;;;;;;5061501;28;20075;-69
2022/08/30 05:26:57;;;;;;;5.75;3.00;;;12.40;99.90;;;;;;5062129;28;20487;-69
2022/08/30 05:29:23;;;;;;;6.15;2.63;;;12.40;99.90;;;;;;5061781;28;20136;-69
2022/08/30 05:31:49;;;;;;;4.93;2.50;;;12.60;99.90;;;;;;5061418;28;20127;-69
2022/08/30 05:34:15;;;;;;;6.57;3.00;;;12.60;99.90;;;;;;5061511;28;20075;-69
2022/08/30 05:36:41;;;;;;;6.32;2.78;;;12.60;99.90;;;;;;5059935;28;20067;-69
2022/08/30 05:39:08;;;;;;;6.45;2.95;;;12.60;99.90;;;;;;5061614;28;20040;-69
2022/08/30 05:41:34;;;;;;;5.40;2.55;;;12.60;99.90;;;;;;5063864;28;20047;-69
2022/08/30 05:44:01;;;;;;;6.32;3.10;;;12.60;99.90;;;;;;5063223;28;20553;-69
2022/08/30 05:46:31;;;;;;;6.03;3.28;;;12.60;99.90;;;;;;5063075;28;20048;-69
2022/08/30 05:48:58;;;;;;;6.15;2.90;;;12.60;99.90;;;;;;5062557;28;20052;-69
2022/08/30 05:51:27;;;;;;;8.30;3.25;;;12.80;99.90;;;;;;5063892;28;20080;-69
2022/08/30 05:53:55;;;;;;;5.65;3.08;;;12.60;99.90;;;;;;5057636;28;20048;-69
2022/08/30 05:56:24;;;;;;;9.10;3.92;;;12.60;99.90;;;;;;5058554;28;20044;-69
2022/08/30 05:58:50;;;;;;;7.60;4.35;;;12.60;99.90;;;;;;5073406;28;20468;-70
2022/08/30 06:01:33;;;;;;;7.07;3.70;;;12.70;99.90;;;;;;5071378;28;20036;-69
2022/08/30 06:04:00;;;;;;;8.05;4.07;;;12.70;99.90;;;;;;5056622;28;20044;-69
2022/08/30 06:06:27;;;;;;;7.97;4.07;;;12.80;99.90;;;;;;5053776;28;20056;-69
2022/08/30 06:08:54;;;;;;;9.98;4.80;;;12.80;99.90;;;;;;5058473;28;20051;-69
2022/08/30 06:11:21;;;;;;;7.20;4.05;;;12.80;99.90;;;;;;5060222;28;20556;-69
2022/08/30 06:13:47;;;;;;;7.65;4.03;;;12.90;99.90;;;;;;5062660;28;20041;-69
2022/08/30 06:16:16;;;;;;;7.50;4.10;;;13.00;99.90;;;;;;5069225;28;20048;-69
2022/08/30 06:18:42;;;;;;;9.20;4.00;;;13.00;99.90;;;;;;5055511;28;20105;-69
2022/08/30 06:21:08;;;;;;;7.20;4.43;;;13.10;99.90;;;;;;5035699;28;20053;-69
2022/08/30 06:23:34;;;;;;;11.75;4.80;;;13.20;99.90;;;;;;5043405;28;20050;-69
2022/08/30 06:26:05;;;;;;;10.07;4.72;;;13.30;99.90;;;;;;5060782;28;20493;-69
2022/08/30 06:28:31;;;;;;;7.80;4.10;;;13.50;99.90;;;;;;5057898;28;20047;-69
2022/08/30 06:30:57;;;;;;;11.90;4.93;;;13.60;99.90;;;;;;5057636;28;20068;-69
2022/08/30 06:33:23;;;;;;;13.63;4.13;;;13.70;99.90;;;;;;5053552;28;20452;-68
2022/08/30 06:35:49;;;;;;;12.50;4.68;;;13.80;99.90;;;;;;5054368;28;20041;-69
2022/08/30 06:38:15;;;;;;;10.00;4.50;;;13.90;99.90;;;;;;5069331;28;20390;-69
2022/08/30 06:40:41;;;;;;;8.63;4.70;;;14.00;99.90;;;;;;5056994;28;20102;-70
2022/08/30 06:43:06;;;;;;;10.40;5.32;;;14.10;99.90;;;;;;5059070;28;20551;-68
2022/08/30 06:45:33;;;;;;;12.90;5.55;;;14.20;99.90;;;;;;5071714;28;20052;-68
2022/08/30 06:47:59;;;;;;;13.07;5.13;;;14.20;99.90;;;;;;5042828;28;20044;-69
2022/08/30 06:50:25;;;;;;;10.77;4.85;;;14.30;99.90;;;;;;5054137;28;20317;-69
2022/08/30 06:52:51;;;;;;;10.55;5.00;;;14.40;99.90;;;;;;5058149;28;20044;-69
2022/08/30 06:55:18;;;;;;;9.23;5.00;;;14.50;99.90;;;;;;5071876;28;20492;-69
2022/08/30 06:57:45;;;;;;;9.52;4.50;;;14.60;99.90;;;;;;5043325;28;21236;-68
2022/08/30 07:00:15;;;;;;;10.15;4.88;;;14.70;99.90;;;;;;5058183;28;21198;-68
2022/08/30 07:02:41;;;;;;;11.25;4.63;;;14.80;99.90;;;;;;5058126;28;20040;-69
2022/08/30 07:05:10;;;;;;;11.95;4.50;;;14.90;99.90;;;;;;5071038;28;20059;-69
2022/08/30 07:07:37;;;;;;;9.10;4.15;;;15.00;99.90;;;;;;5057707;28;20863;-69
2022/08/30 07:10:06;;;;;;;9.15;4.80;;;15.10;99.90;;;;;;5057182;28;20044;-69
2022/08/30 07:12:32;;;;;;;11.05;4.20;;;15.10;99.90;;;;;;5057310;28;20044;-69
2022/08/30 07:14:58;;;;;;;12.25;3.75;;;15.30;99.90;;;;;;5057597;28;20055;-69
2022/08/30 07:20:09;;;;;;;6.68;2.85;;;15.50;99.90;;;;;;5056585;28;20075;-70
2022/08/30 07:22:37;;;;;;;8.13;2.60;;;15.70;99.90;;;;;;5050684;28;20511;-69
2022/08/30 07:25:03;;;;;;;5.30;2.45;;;15.90;99.90;;;;;;5050380;28;20379;-68
2022/08/30 07:27:29;;;;;;;8.73;2.85;;;16.20;99.90;;;;;;5054495;28;20225;-69
2022/08/30 07:29:57;;;;;;;5.30;1.95;;;16.40;99.90;;;;;;5053343;28;20040;-69
2022/08/30 07:32:23;;;;;;;6.28;1.83;;;16.70;99.90;;;;;;5047017;28;20052;-69
2022/08/30 07:34:48;;;;;;;8.10;1.52;;;16.90;99.90;;;;;;5048919;28;20059;-69
2022/08/30 07:37:14;;;;;;;5.78;1.50;;;17.10;99.90;;;;;;5047080;28;20083;-69
2022/08/30 07:39:40;;;;;;;4.18;1.40;;;17.30;99.90;;;;;;5052287;28;20071;-74
2022/08/30 07:42:06;;;;;;;5.05;1.33;;;17.40;99.90;;;;;;5050812;28;20079;-69
2022/08/30 07:44:31;;;;;;;5.72;1.27;;;17.50;99.90;;;;;;5049948;28;20048;-69
2022/08/30 07:46:57;;;;;;;6.07;1.48;;;17.70;99.90;;;;;;5049404;28;20517;-69
2022/08/30 07:49:23;;;;;;;6.40;1.80;;;17.80;99.90;;;;;;5047970;28;20036;-69
2022/08/30 07:51:49;;;;;;;6.88;1.38;;;17.90;99.90;;;;;;5048128;28;20139;-70
2022/08/30 07:54:15;;;;;;;4.18;1.27;;;18.00;99.90;;;;;;5065756;28;20048;-68
2022/08/30 07:56:40;;;;;;;5.75;1.45;;;18.10;99.90;;;;;;5058166;28;20037;-69
2022/08/30 07:59:06;;;;;;;4.13;1.38;;;18.20;99.90;;;;;;5055706;28;21395;-70
2022/08/30 08:01:32;;;;;;;5.22;1.60;;;18.20;99.90;;;;;;5056600;28;20059;-70
2022/08/30 08:03:57;;;;;;;5.13;1.60;;;18.30;99.90;;;;;;5051681;28;20051;-70
2022/08/30 08:06:23;;;;;;;9.50;1.40;;;18.40;99.90;;;;;;5053675;28;20164;-69
2022/08/30 08:08:50;;;;;;;6.45;1.42;;;18.50;99.90;;;;;;5055780;28;20060;-69
2022/08/30 08:11:19;;;;;;;3.70;1.27;;;18.50;99.90;;;;;;5055346;28;20053;-71
2022/08/30 08:13:46;;;;;;;6.80;1.38;;;18.60;99.90;;;;;;5054442;28;20045;-70
2022/08/30 08:16:12;;;;;;;5.90;1.42;;;18.70;99.90;;;;;;5055480;28;20041;-70
2022/08/30 08:18:38;;;;;;;3.90;1.30;;;18.70;99.90;;;;;;5055101;28;20103;-70
2022/08/30 08:21:04;;;;;;;4.78;1.67;;;18.80;99.90;;;;;;5057070;28;20401;-69
2022/08/30 08:23:30;;;;;;;7.30;2.08;;;18.90;99.90;;;;;;5037230;28;20059;-69
2022/08/30 08:25:56;;;;;;;3.45;1.35;;;19.00;99.90;;;;;;5051286;28;20457;-70
2022/08/30 08:28:22;;;;;;;4.60;1.20;;;19.10;99.90;;;;;;5054804;28;20110;-70
2022/08/30 08:30:48;;;;;;;4.95;1.30;;;19.10;99.90;;;;;;5060103;28;20048;-70
2022/08/30 08:33:15;;;;;;;3.80;1.20;;;19.20;99.90;;;;;;5060144;28;20080;-70
2022/08/30 08:35:41;;;;;;;3.80;1.27;;;19.20;99.90;;;;;;5059780;28;20044;-71
2022/08/30 08:38:07;;;;;;;4.75;1.55;;;19.20;99.90;;;;;;5058425;28;20101;-70
2022/08/30 08:40:40;;;;;;;3.80;1.10;;;19.20;99.90;;;;;;5061211;28;20044;-70
2022/08/30 08:43:16;;;;;;;5.03;1.30;;;19.20;99.90;;;;;;5063439;28;20044;-70
2022/08/30 08:46:09;;;;;;;3.83;1.40;;;19.30;99.90;;;;;;5060518;28;20119;-71
2022/08/30 08:48:38;;;;;;;4.70;1.40;;;19.40;99.90;;;;;;5040171;28;20804;-71
2022/08/30 08:54:00;;;;;;;3.33;1.17;;;19.20;99.90;;;;;;5062479;28;20044;-70
2022/08/30 08:56:26;;;;;;;5.07;1.48;;;19.40;99.90;;;;;;5059644;28;20120;-71
2022/08/30 08:58:54;;;;;;;4.22;1.35;;;19.50;99.90;;;;;;5054649;28;20151;-71
2022/08/30 09:01:22;;;;;;;3.65;1.27;;;19.50;99.90;;;;;;5062094;28;20072;-71
2022/08/30 09:03:49;;;;;;;3.42;1.20;;;19.60;99.90;;;;;;5060203;28;20040;-71
2022/08/30 09:06:30;;;;;;;4.25;1.27;;;19.70;99.90;;;;;;5058599;28;20891;-71
2022/08/30 09:08:56;;;;;;;3.92;1.40;;;19.60;99.90;;;;;;5074046;28;20063;-70
2022/08/30 09:11:31;;;;;;;4.93;1.30;;;19.60;99.90;;;;;;5059539;28;20040;-71
2022/08/30 09:13:58;;;;;;;4.85;1.60;;;19.50;99.90;;;;;;5039488;28;20131;-71
2022/08/30 09:16:51;;;;;;;6.47;1.50;;;19.50;99.90;;;;;;5058895;28;20490;-71
2022/08/30 09:19:30;;;;;;;4.65;1.35;;;19.50;99.90;;;;;;5042972;28;20052;-71
2022/08/30 09:21:58;;;;;;;4.55;1.52;;;19.60;99.90;;;;;;5056607;28;20413;-71
2022/08/30 09:24:23;;;;;;;3.30;1.17;;;19.70;99.90;;;;;;5054283;28;20153;-71
2022/08/30 09:26:49;;;;;;;6.30;1.23;;;19.90;99.90;;;;;;5052010;28;20056;-71
2022/08/30 09:29:17;;;;;;;5.18;1.30;;;19.90;99.90;;;;;;5037899;28;20058;-70
2022/08/30 09:31:52;;;;;;;5.93;1.40;;;20.00;99.90;;;;;;5055393;28;20048;-73
2022/08/30 09:34:22;;;;;;;4.00;1.20;;;20.10;99.90;;;;;;5066108;28;20382;-73
2022/08/30 09:36:54;;;;;;;4.97;1.40;;;20.10;99.90;;;;;;5067942;28;20094;-72
2022/08/30 09:39:30;;;;;;;4.10;1.38;;;20.20;99.90;;;;;;5053922;28;20131;-72
2022/08/30 09:42:12;;;;;;;2.80;1.40;;;20.20;99.90;;;;;;5055233;28;20064;-71
2022/08/30 09:44:38;;;;;;;7.38;1.50;;;20.20;99.90;;;;;;5047110;28;20558;-72
2022/08/30 09:47:07;;;;;;;4.15;1.50;;;20.10;99.90;;;;;;5050713;28;20037;-72
2022/08/30 09:49:40;;;;;;;4.95;1.30;;;20.00;99.90;;;;;;5053046;28;20409;-71
2022/08/30 09:52:36;;;;;;;6.80;1.77;;;20.00;99.90;;;;;;5049383;28;20052;-71
2022/08/30 09:55:22;;;;;;;5.00;1.50;;;20.10;99.90;;;;;;5069241;28;20144;-71
2022/08/30 09:58:09;;;;;;;3.28;1.30;;;20.30;99.90;;;;;;5050820;28;20531;-72
2022/08/30 10:01:01;;;;;;;4.82;1.45;;;20.30;99.90;;;;;;5051344;28;20109;-71
2022/08/30 10:03:31;;;;;;;4.28;1.40;;;20.40;99.90;;;;;;5039454;28;20109;-71
2022/08/30 10:06:16;;;;;;;5.13;1.47;;;20.40;99.90;;;;;;5034913;28;20076;-70
2022/08/30 10:09:00;;;;;;;2.42;1.20;;;20.50;99.90;;;;;;5053618;28;20098;-71
2022/08/30 10:11:38;;;;;;;4.85;1.30;;;20.50;99.90;;;;;;5054355;28;20040;-72
2022/08/30 10:14:25;;;;;;;5.57;1.30;;;20.50;99.90;;;;;;5057630;28;20456;-71
2022/08/30 10:17:04;;;;;;;4.28;1.40;;;20.60;99.90;;;;;;5059123;28;20051;-71
2022/08/30 10:19:38;;;;;;;3.03;1.13;;;20.60;99.90;;;;;;5059192;28;20041;-72
2022/08/30 10:22:12;;;;;;;2.47;1.00;;;20.60;99.90;;;;;;5041290;28;20044;-72
2022/08/30 10:24:52;;;;;;;3.65;1.23;;;20.50;99.90;;;;;;5067501;28;20044;-71
2022/08/30 10:27:27;;;;;;;4.88;1.25;;;20.40;99.90;;;;;;5052019;28;20060;-72
2022/08/30 10:30:05;;;;;;;2.28;1.08;;;20.40;99.90;;;;;;5057494;28;20086;-72
2022/08/30 10:32:57;;;;;;;2.40;1.05;;;20.40;99.90;;;;;;5077019;28;20406;-71
2022/08/30 10:35:27;;;;;;;4.65;1.20;;;20.30;99.90;;;;;;5066408;28;20049;-71
2022/08/30 10:38:02;;;;;;;4.10;1.23;;;20.30;99.90;;;;;;5034166;28;20044;-72
2022/08/30 10:43:48;;;;;;;3.72;1.17;;;20.20;99.90;;;;;;5050468;28;20088;-71
2022/08/30 10:46:28;;;;;;;6.70;1.48;;;20.30;99.90;;;;;;5050601;28;20036;-71
2022/08/30 10:48:55;;;;;;;2.55;1.10;;;20.40;99.90;;;;;;5050961;28;20056;-71
2022/08/30 10:51:45;;;;;;;4.55;1.30;;;20.40;99.90;;;;;;5053925;28;20048;-71
2022/08/30 10:54:22;;;;;;;9.25;1.38;;;20.60;99.90;;;;;;5052293;28;20067;-71
2022/08/30 10:56:52;;;;;;;3.40;1.30;;;20.60;99.90;;;;;;5056608;28;20045;-71
2022/08/30 10:59:19;;;;;;;2.97;1.15;;;20.70;99.90;;;;;;5051412;28;20589;-71
2022/08/30 11:02:06;;;;;;;6.80;1.20;;;20.70;99.90;;;;;;5054001;28;20394;-72
2022/08/30 11:05:19;;;;;;;6.57;0.95;;;20.80;99.90;;;;;;5068254;28;20044;-72
2022/08/30 11:08:12;;;;;;;3.95;0.95;;;20.90;99.90;;;;;;5011287;28;20044;-72
2022/08/30 11:11:09;;;;;;;1.52;0.82;;;20.90;99.90;;;;;;5077157;28;20647;-72
2022/08/30 11:13:38;;;;;;;5.55;1.10;;;20.90;99.90;;;;;;5059655;28;20261;-72
2022/08/30 11:16:14;;;;;;;5.22;1.13;;;20.90;99.90;;;;;;5058436;28;20287;-71
2022/08/30 11:18:52;;;;;;;2.58;0.98;;;20.90;99.90;;;;;;5061181;28;20052;-71
2022/08/30 11:21:35;;;;;;;5.35;1.20;;;21.00;99.90;;;;;;5060574;28;20045;-72
2022/08/30 11:24:19;;;;;;;4.65;1.23;;;21.10;99.90;;;;;;5038588;28;20040;-70
2022/08/30 11:26:48;;;;;;;4.43;1.10;;;21.10;99.90;;;;;;5042094;28;20098;-71
2022/08/30 11:29:35;;;;;;;3.47;1.20;;;21.20;99.90;;;;;;5059209;28;20044;-72
2022/08/30 11:32:16;;;;;;;3.42;1.10;;;21.30;99.90;;;;;;5057652;28;20036;-71
2022/08/30 11:34:47;;;;;;;3.70;1.00;;;21.30;99.90;;;;;;5057836;28;20056;-72
2022/08/30 11:37:40;;;;;;;3.38;1.17;;;21.30;99.90;;;;;;5067034;28;20051;-70
2022/08/30 11:40:48;;;;;;;5.80;1.35;;;21.30;99.90;;;;;;5053462;28;20481;-71
2022/08/30 11:43:46;;;;;;;8.25;1.08;;;21.40;99.90;;;;;;5041142;28;20053;-71
2022/08/30 11:46:18;;;;;;;5.57;1.40;;;21.40;99.90;;;;;;5067134;28;20110;-71
2022/08/30 11:49:00;;;;;;;4.38;1.13;;;21.40;99.90;;;;;;5069623;28;20071;-71
2022/08/30 11:51:47;;;;;;;2.53;1.10;;;21.30;99.90;;;;;;5059172;28;20045;-72
2022/08/30 11:54:15;;;;;;;7.45;1.35;;;21.40;99.90;;;;;;5077650;28;20036;-71
2022/08/30 11:56:59;;;;;;;2.45;1.02;;;21.50;99.90;;;;;;5048685;28;20135;-71
2022/08/30 11:59:46;;;;;;;4.63;1.10;;;21.50;99.90;;;;;;5056121;28;20052;-72
2022/08/30 12:02:50;;;;;;;5.38;1.08;;;21.50;99.90;;;;;;5053820;28;20417;-71
2022/08/30 12:05:37;;;;;;;5.60;1.30;;;21.30;99.90;;;;;;5056524;28;20093;-72
2022/08/30 12:08:07;;;;;;;5.90;1.10;;;21.40;99.90;;;;;;5067863;28;20071;-72
2022/08/30 12:10:43;;;;;;;3.72;1.20;;;21.30;99.90;;;;;;5059004;28;20088;-71
2022/08/30 12:13:35;;;;;;;5.88;1.20;;;21.40;99.90;;;;;;5063012;28;20304;-72
2022/08/30 12:16:33;;;;;;;4.93;1.45;;;21.40;99.90;;;;;;5053375;28;20048;-70
2022/08/30 12:19:14;;;;;;;4.35;1.13;;;21.50;99.90;;;;;;5054136;28;20401;-71
2022/08/30 12:21:40;;;;;;;3.50;1.20;;;21.50;99.90;;;;;;5055663;28;20090;-71
2022/08/30 12:24:22;;;;;;;5.43;1.60;;;21.70;99.90;;;;;;5070951;28;20111;-71
2022/08/30 12:26:50;;;;;;;2.78;1.00;;;21.70;99.90;;;;;;5057344;28;20044;-71
2022/08/30 12:29:22;;;;;;;3.95;1.30;;;21.70;99.90;;;;;;5049974;28;20044;-71
2022/08/30 12:32:07;;;;;;;4.30;1.20;;;21.70;99.90;;;;;;5052201;28;20049;-70
2022/08/30 12:34:50;;;;;;;5.03;1.58;;;21.60;99.90;;;;;;5056078;28;20045;-71
2022/08/30 12:37:32;;;;;;;5.97;1.40;;;21.50;99.90;;;;;;5050444;28;20671;-71
2022/08/30 12:40:00;;;;;;;3.20;1.10;;;21.50;99.90;;;;;;5067492;28;20574;-71
2022/08/30 12:42:32;;;;;;;4.03;1.17;;;21.50;99.90;;;;;;5055930;28;20040;-71
2022/08/30 12:45:10;;;;;;;2.83;1.00;;;21.50;99.90;;;;;;5053593;28;20074;-71
2022/08/30 12:47:44;;;;;;;3.75;1.10;;;21.50;99.90;;;;;;5036566;28;20048;-70
2022/08/30 12:50:15;;;;;;;4.47;1.15;;;21.60;99.90;;;;;;5034958;28;20110;-71
2022/08/30 12:52:47;;;;;;;4.35;1.35;;;21.70;99.90;;;;;;5055580;28;20643;-71
2022/08/30 12:55:15;;;;;;;3.80;1.10;;;21.70;99.90;;;;;;5038601;28;20060;-72
2022/08/30 12:58:01;;;;;;;5.55;1.20;;;21.70;99.90;;;;;;5037025;28;20041;-72
2022/08/30 13:00:31;;;;;;;3.42;1.30;;;21.70;99.90;;;;;;5056374;28;20128;-72
2022/08/30 13:03:26;;;;;;;6.63;1.25;;;21.70;99.90;;;;;;5053894;28;22092;-71
2022/08/30 13:05:54;;;;;;;3.65;1.48;;;21.70;99.90;;;;;;5058192;28;20057;-71
2022/08/30 13:08:24;;;;;;;6.40;1.65;;;21.70;99.90;;;;;;5058592;28;20045;-70
2022/08/30 13:10:54;;;;;;;4.32;1.58;;;21.70;99.90;;;;;;5075362;28;20057;-71